Time;durP1;ratioP1;P1;durP2;ratioP2;P2;SDS_P1;SDS_P2;PMS_P1;PMS_P2;Temp;Humidity;BMP_temperature;BMP_pressure;BME280_temperature;BME280_humidity;BME280_pressure;Samples;Min_cycle;Max_cycle;Signal;HPM_P1;HPM_P2
2022/06/16 00:02:10;;;;;;;4.80;2.90;;;14.60;99.90;;;;;;5001347;28;20077;-85
2022/06/16 00:04:38;;;;;;;3.17;2.97;;;14.50;99.90;;;;;;4980135;28;20050;-85
2022/06/16 00:07:05;;;;;;;4.90;4.35;;;14.50;99.90;;;;;;5005221;28;20123;-85
2022/06/16 00:09:31;;;;;;;4.20;3.20;;;14.50;99.90;;;;;;5005224;28;20065;-85
2022/06/16 00:11:58;;;;;;;4.30;3.85;;;14.50;99.90;;;;;;5002964;28;20062;-85
2022/06/16 00:14:27;;;;;;;6.75;3.00;;;14.50;99.90;;;;;;5004849;28;20053;-85
2022/06/16 00:16:55;;;;;;;5.25;3.63;;;14.50;99.90;;;;;;5004856;28;20655;-85
2022/06/16 00:19:22;;;;;;;7.32;3.28;;;14.40;99.90;;;;;;4986231;28;20434;-85
2022/06/16 00:21:49;;;;;;;4.45;3.30;;;14.40;99.90;;;;;;4988801;28;20139;-85
2022/06/16 00:24:16;;;;;;;6.80;4.38;;;14.40;99.90;;;;;;5004976;28;20522;-85
2022/06/16 00:26:43;;;;;;;3.25;2.95;;;14.40;99.90;;;;;;5004069;28;20042;-85
2022/06/16 00:29:10;;;;;;;5.40;2.83;;;14.40;99.90;;;;;;5004759;28;20057;-85
2022/06/16 00:31:37;;;;;;;6.13;3.35;;;14.40;99.90;;;;;;5002944;28;20108;-85
2022/06/16 00:34:04;;;;;;;4.45;3.60;;;14.40;99.90;;;;;;5002674;28;20058;-85
2022/06/16 00:36:32;;;;;;;4.05;3.15;;;14.40;99.90;;;;;;5004459;28;20037;-85
2022/06/16 00:38:59;;;;;;;4.53;3.42;;;14.40;99.90;;;;;;4986988;28;20507;-85
2022/06/16 00:41:26;;;;;;;4.15;3.53;;;14.40;99.90;;;;;;5000313;28;20061;-85
2022/06/16 00:43:53;;;;;;;4.85;2.90;;;14.40;99.90;;;;;;4982918;28;20103;-85
2022/06/16 00:46:20;;;;;;;3.85;2.88;;;14.40;99.90;;;;;;5004129;28;20053;-85
2022/06/16 00:48:51;;;;;;;6.32;3.60;;;14.40;99.90;;;;;;5003039;28;20069;-85
2022/06/16 00:51:33;;;;;;;4.60;3.17;;;14.40;99.90;;;;;;5001444;28;20179;-85
2022/06/16 00:54:19;;;;;;;4.45;3.25;;;14.40;99.90;;;;;;4980115;28;20065;-85
2022/06/16 00:56:52;;;;;;;6.97;4.25;;;14.40;99.90;;;;;;4997042;28;20536;-85
2022/06/16 00:59:23;;;;;;;7.07;3.22;;;14.40;99.90;;;;;;5004031;28;20057;-85
2022/06/16 01:01:51;;;;;;;6.13;3.30;;;14.40;99.90;;;;;;5002157;28;20049;-84
2022/06/16 01:07:08;;;;;;;5.15;3.55;;;14.40;99.90;;;;;;4996117;28;20050;-84
2022/06/16 01:09:36;;;;;;;7.97;3.83;;;14.40;99.90;;;;;;5001825;28;20057;-84
2022/06/16 01:15:01;;;;;;;5.28;3.95;;;14.40;99.90;;;;;;4984230;28;20054;-84
2022/06/16 01:17:40;;;;;;;7.68;3.90;;;14.40;99.90;;;;;;5003055;28;20050;-84
2022/06/16 01:20:25;;;;;;;8.27;3.30;;;14.40;99.90;;;;;;4984199;28;20057;-84
2022/06/16 01:23:30;;;;;;;6.40;3.60;;;14.40;99.90;;;;;;4985154;28;20081;-84
2022/06/16 01:26:35;;;;;;;6.07;4.05;;;14.40;99.90;;;;;;4982982;28;20120;-84
2022/06/16 01:29:27;;;;;;;5.72;3.72;;;14.40;99.90;;;;;;5003353;28;20141;-84
2022/06/16 01:32:19;;;;;;;5.53;3.53;;;14.40;99.90;;;;;;4983391;28;20136;-85
2022/06/16 01:35:10;;;;;;;7.57;3.72;;;14.40;99.90;;;;;;4963812;28;20130;-85
2022/06/16 01:38:06;;;;;;;3.67;3.05;;;14.40;99.90;;;;;;4998084;28;20061;-85
2022/06/16 01:40:56;;;;;;;4.25;3.10;;;14.40;99.90;;;;;;4994416;28;20045;-85
2022/06/16 01:43:30;;;;;;;3.05;2.75;;;14.40;99.90;;;;;;4993687;28;20136;-85
2022/06/16 01:46:16;;;;;;;4.07;3.72;;;14.40;99.90;;;;;;4998109;28;20041;-85
2022/06/16 01:48:50;;;;;;;4.07;3.03;;;14.40;99.90;;;;;;4998575;28;20049;-85
2022/06/16 01:51:29;;;;;;;8.75;4.43;;;14.40;99.90;;;;;;4996521;28;20045;-84
2022/06/16 01:54:02;;;;;;;4.63;3.95;;;14.40;99.90;;;;;;4995283;28;20893;-84
2022/06/16 01:56:55;;;;;;;6.53;3.58;;;14.40;99.90;;;;;;4969096;28;20042;-84
2022/06/16 01:59:27;;;;;;;6.07;3.47;;;14.40;99.90;;;;;;4964387;28;20073;-84
2022/06/16 02:02:00;;;;;;;4.50;3.83;;;14.40;99.90;;;;;;4981802;28;20053;-84
2022/06/16 02:04:38;;;;;;;9.52;3.80;;;14.30;99.90;;;;;;5003798;28;20072;-84
2022/06/16 02:07:13;;;;;;;4.35;3.58;;;14.30;99.90;;;;;;4997548;28;20037;-84
2022/06/16 02:09:47;;;;;;;7.43;3.80;;;14.30;99.90;;;;;;4998604;28;20140;-84
2022/06/16 02:15:29;;;;;;;4.65;2.95;;;14.30;99.90;;;;;;4997001;28;20060;-84
2022/06/16 02:18:03;;;;;;;5.60;3.75;;;14.30;99.90;;;;;;4998715;28;20065;-84
2022/06/16 02:20:56;;;;;;;5.03;4.00;;;14.30;99.90;;;;;;5000948;28;20205;-84
2022/06/16 02:23:24;;;;;;;5.20;3.28;;;14.30;99.90;;;;;;5005267;28;20052;-84
2022/06/16 02:25:57;;;;;;;10.20;4.78;;;14.30;99.90;;;;;;4983690;28;20037;-84
2022/06/16 02:28:25;;;;;;;4.90;3.70;;;14.20;99.90;;;;;;4980537;28;20045;-84
2022/06/16 02:31:13;;;;;;;4.70;3.92;;;14.20;99.90;;;;;;4972544;28;20049;-84
2022/06/16 02:34:02;;;;;;;7.45;4.40;;;14.20;99.90;;;;;;4976257;28;20053;-84
2022/06/16 02:37:03;;;;;;;7.28;3.78;;;14.20;99.90;;;;;;4995679;28;20579;-84
2022/06/16 02:39:45;;;;;;;5.10;4.05;;;14.20;99.90;;;;;;4985168;28;20050;-85
2022/06/16 02:42:31;;;;;;;5.40;4.15;;;14.20;99.90;;;;;;4989331;28;20141;-85
2022/06/16 02:45:26;;;;;;;6.13;3.55;;;14.20;99.90;;;;;;4988709;28;20483;-85
2022/06/16 02:48:05;;;;;;;6.15;3.65;;;14.20;99.90;;;;;;4991049;28;20133;-85
2022/06/16 02:50:35;;;;;;;7.60;4.97;;;14.20;99.90;;;;;;5000562;28;20050;-85
2022/06/16 02:53:22;;;;;;;8.75;4.13;;;14.20;99.90;;;;;;4993507;28;20201;-85
2022/06/16 02:55:55;;;;;;;4.50;3.53;;;14.30;99.90;;;;;;4996866;28;20054;-85
2022/06/16 02:58:23;;;;;;;11.30;4.80;;;14.20;99.90;;;;;;5001980;28;20056;-85
2022/06/16 03:00:54;;;;;;;5.65;3.85;;;14.30;99.90;;;;;;4976871;28;20054;-86
2022/06/16 03:03:29;;;;;;;5.03;3.85;;;14.30;99.90;;;;;;4976367;28;20057;-85
2022/06/16 03:06:12;;;;;;;5.97;3.97;;;14.30;99.90;;;;;;4976393;28;20046;-85
2022/06/16 03:08:47;;;;;;;9.77;6.88;;;14.40;99.90;;;;;;4988773;28;20596;-85
2022/06/16 03:11:15;;;;;;;14.65;6.22;;;14.40;99.90;;;;;;5004281;28;20650;-85
2022/06/16 03:13:43;;;;;;;6.07;4.30;;;14.40;99.90;;;;;;4981610;28;20713;-85
2022/06/16 03:16:21;;;;;;;5.75;4.88;;;14.40;99.90;;;;;;4998327;28;20049;-85
2022/06/16 03:18:49;;;;;;;6.55;3.92;;;14.40;99.90;;;;;;4997601;28;20092;-85
2022/06/16 03:21:16;;;;;;;6.97;4.75;;;14.40;99.90;;;;;;5007618;28;20058;-85
2022/06/16 03:23:43;;;;;;;6.00;5.22;;;14.40;99.90;;;;;;5005171;28;20059;-85
2022/06/16 03:26:10;;;;;;;14.50;5.35;;;14.50;99.90;;;;;;4996607;28;20461;-85
2022/06/16 03:28:37;;;;;;;8.25;4.88;;;14.50;99.90;;;;;;5008512;28;20157;-85
2022/06/16 03:31:10;;;;;;;13.00;5.38;;;14.60;99.90;;;;;;4998405;28;20430;-85
2022/06/16 03:33:37;;;;;;;6.47;4.75;;;14.60;99.90;;;;;;4988680;28;20089;-85
2022/06/16 03:36:04;;;;;;;10.55;6.53;;;14.60;99.90;;;;;;4988296;28;20042;-85
2022/06/16 03:41:04;;;;;;;6.38;4.80;;;14.80;99.90;;;;;;5002044;28;20681;-85
2022/06/16 03:43:32;;;;;;;9.10;4.88;;;14.80;99.90;;;;;;4987420;28;20892;-85
2022/06/16 03:46:11;;;;;;;8.98;4.47;;;14.90;99.90;;;;;;4999436;28;20042;-85
2022/06/16 03:48:42;;;;;;;8.18;5.60;;;15.00;99.90;;;;;;4987374;28;20536;-85
2022/06/16 03:51:11;;;;;;;6.82;4.53;;;15.10;99.90;;;;;;5005612;28;20136;-85
2022/06/16 03:53:41;;;;;;;7.03;4.27;;;15.10;99.90;;;;;;4997409;28;20938;-85
2022/06/16 03:56:08;;;;;;;6.03;4.18;;;15.10;99.90;;;;;;4986063;28;20280;-85
2022/06/16 03:58:35;;;;;;;6.72;4.55;;;15.20;99.90;;;;;;4985501;28;20053;-85
2022/06/16 04:01:03;;;;;;;8.32;5.22;;;15.20;99.90;;;;;;4989702;28;20599;-85
2022/06/16 04:06:17;;;;;;;13.13;5.45;;;15.30;99.90;;;;;;4999395;28;20512;-85
2022/06/16 04:08:49;;;;;;;5.82;4.03;;;15.40;99.90;;;;;;4994589;28;20050;-85
2022/06/16 04:11:29;;;;;;;10.43;4.90;;;15.40;99.90;;;;;;4984671;28;20616;-85
2022/06/16 04:14:07;;;;;;;6.85;4.68;;;15.40;99.90;;;;;;4981218;28;20088;-85
2022/06/16 04:16:45;;;;;;;11.05;5.65;;;15.50;99.90;;;;;;5008140;28;20042;-85
2022/06/16 04:19:21;;;;;;;6.95;4.60;;;15.50;99.90;;;;;;4986418;28;20042;-85
2022/06/16 04:21:52;;;;;;;8.07;4.65;;;15.60;99.90;;;;;;4986252;28;20564;-85
2022/06/16 04:24:25;;;;;;;8.20;4.97;;;15.70;99.90;;;;;;5011918;28;20581;-85
2022/06/16 04:26:54;;;;;;;8.50;6.20;;;15.70;99.90;;;;;;4990955;28;20117;-85
2022/06/16 04:29:22;;;;;;;9.57;5.00;;;15.80;99.90;;;;;;4976514;28;20104;-85
2022/06/16 04:31:49;;;;;;;6.03;4.07;;;15.80;99.90;;;;;;5005204;28;20128;-85
2022/06/16 04:34:17;;;;;;;7.72;4.47;;;15.90;99.90;;;;;;4986565;28;20386;-85
2022/06/16 04:36:45;;;;;;;10.43;5.63;;;15.90;99.90;;;;;;5006191;28;20046;-85
2022/06/16 04:39:18;;;;;;;7.47;5.00;;;16.00;99.90;;;;;;4973093;28;20050;-85
2022/06/16 04:41:48;;;;;;;6.50;4.25;;;15.90;99.90;;;;;;5000166;28;20042;-85
2022/06/16 04:44:17;;;;;;;9.90;5.13;;;16.00;99.90;;;;;;4975830;28;20101;-85
2022/06/16 04:46:45;;;;;;;9.90;4.93;;;16.00;99.90;;;;;;5000148;28;20205;-85
2022/06/16 04:49:14;;;;;;;6.68;4.18;;;16.00;99.90;;;;;;4985082;28;20111;-85
2022/06/16 04:52:05;;;;;;;6.45;4.97;;;16.00;99.90;;;;;;4965737;28;20046;-85
2022/06/16 04:54:47;;;;;;;7.03;4.50;;;16.10;99.90;;;;;;4943012;28;20058;-85
2022/06/16 04:57:36;;;;;;;4.97;3.90;;;16.10;99.90;;;;;;4994239;28;20120;-86
2022/06/16 05:00:36;;;;;;;6.17;5.27;;;16.10;99.90;;;;;;4988123;28;20132;-85
2022/06/16 05:03:21;;;;;;;10.40;6.43;;;16.20;99.90;;;;;;5000466;28;20046;-85
2022/06/16 05:06:15;;;;;;;7.47;6.30;;;16.20;99.90;;;;;;4999289;28;20721;-86
2022/06/16 05:09:02;;;;;;;6.28;5.78;;;16.20;99.90;;;;;;5001382;28;20415;-86
2022/06/16 05:11:54;;;;;;;10.25;4.78;;;16.20;99.90;;;;;;4996834;28;20111;-85
2022/06/16 05:14:40;;;;;;;11.18;5.18;;;16.20;99.90;;;;;;5003078;28;20052;-86
2022/06/16 05:17:39;;;;;;;5.90;4.55;;;16.10;99.90;;;;;;4994588;28;20069;-86
2022/06/16 05:20:25;;;;;;;8.38;4.68;;;16.20;99.90;;;;;;5004064;28;20135;-85
2022/06/16 05:23:12;;;;;;;9.70;4.00;;;16.30;99.90;;;;;;4987103;28;20042;-86
2022/06/16 05:25:58;;;;;;;11.85;4.32;;;16.30;99.90;;;;;;4990013;28;20057;-85
2022/06/16 05:28:37;;;;;;;6.32;3.42;;;16.30;99.90;;;;;;5002672;28;20466;-86
2022/06/16 05:31:25;;;;;;;6.80;3.13;;;16.40;99.90;;;;;;4984244;28;20172;-86
2022/06/16 05:33:58;;;;;;;4.78;3.08;;;16.50;99.90;;;;;;5002531;28;20685;-85
2022/06/16 05:36:34;;;;;;;3.63;2.47;;;16.50;99.90;;;;;;5007688;28;20421;-86
2022/06/16 05:39:26;;;;;;;4.13;2.25;;;16.50;99.90;;;;;;5002134;28;20049;-85
2022/06/16 05:42:19;;;;;;;3.60;2.38;;;16.50;99.90;;;;;;5008595;28;20192;-85
2022/06/16 05:45:07;;;;;;;2.42;2.17;;;16.60;99.90;;;;;;4997455;28;20042;-85
2022/06/16 05:47:54;;;;;;;3.70;2.55;;;16.70;99.90;;;;;;5000694;28;20042;-85
2022/06/16 05:50:25;;;;;;;8.07;2.17;;;16.70;99.90;;;;;;5007613;28;20061;-85
2022/06/16 05:52:53;;;;;;;3.97;2.88;;;16.70;99.90;;;;;;5009967;28;20054;-85
2022/06/16 05:55:25;;;;;;;6.72;2.30;;;16.70;99.90;;;;;;4985258;28;20061;-85
2022/06/16 05:57:53;;;;;;;2.75;2.55;;;16.60;99.90;;;;;;4998599;28;20117;-85
2022/06/16 06:00:20;;;;;;;7.57;2.50;;;16.70;99.90;;;;;;4999189;28;20057;-85
2022/06/16 06:02:56;;;;;;;6.90;3.17;;;16.80;99.90;;;;;;5004749;28;21944;-85
2022/06/16 06:05:28;;;;;;;3.80;2.88;;;16.70;99.90;;;;;;4988211;28;21103;-85
2022/06/16 06:16:25;;;;;;;10.35;3.53;;;16.80;99.90;;;;;;5004442;28;20498;-85
2022/06/16 06:18:54;;;;;;;9.40;3.28;;;16.70;99.90;;;;;;5001006;28;20061;-85
2022/06/16 06:24:16;;;;;;;4.32;3.92;;;16.60;99.90;;;;;;4958139;28;20453;-86
2022/06/16 06:26:43;;;;;;;6.07;2.92;;;16.60;99.90;;;;;;4980817;28;20465;-85
2022/06/16 06:29:12;;;;;;;5.10;2.90;;;16.70;99.90;;;;;;4960371;28;20101;-85
2022/06/16 06:31:39;;;;;;;5.80;2.35;;;16.70;99.90;;;;;;4959079;28;20050;-85
2022/06/16 06:34:07;;;;;;;5.07;3.08;;;16.70;99.90;;;;;;4979584;28;20050;-85
2022/06/16 06:36:34;;;;;;;5.07;3.03;;;16.60;99.90;;;;;;4984279;28;20403;-86
2022/06/16 06:39:01;;;;;;;7.53;3.70;;;16.70;99.90;;;;;;4982626;28;20054;-86
2022/06/16 06:41:28;;;;;;;5.82;3.10;;;16.80;99.90;;;;;;4981832;28;20391;-86
2022/06/16 06:43:55;;;;;;;5.07;3.15;;;16.90;99.90;;;;;;4983414;28;20096;-85
2022/06/16 06:46:22;;;;;;;4.22;3.67;;;16.80;99.90;;;;;;4981164;28;20065;-85
2022/06/16 06:48:49;;;;;;;8.00;3.08;;;16.90;99.90;;;;;;4985290;28;20569;-85
2022/06/16 06:51:16;;;;;;;9.32;3.10;;;17.00;99.90;;;;;;4981777;28;20064;-85
2022/06/16 06:53:43;;;;;;;9.25;3.03;;;17.00;99.90;;;;;;4980009;28;20042;-86
2022/06/16 06:56:13;;;;;;;10.82;3.47;;;17.00;99.90;;;;;;4983919;28;20089;-85
2022/06/16 06:58:40;;;;;;;6.72;3.58;;;17.00;99.90;;;;;;4983102;28;20046;-86
2022/06/16 07:01:07;;;;;;;6.38;3.17;;;17.10;99.90;;;;;;4949092;28;20062;-85
2022/06/16 07:03:35;;;;;;;4.55;2.90;;;17.20;99.90;;;;;;4983653;28;20550;-85
2022/06/16 07:06:03;;;;;;;8.45;2.85;;;17.30;99.90;;;;;;4985384;28;20132;-84
2022/06/16 07:08:31;;;;;;;4.20;1.98;;;17.30;99.90;;;;;;4980444;28;20431;-86
2022/06/16 07:10:58;;;;;;;6.15;3.80;;;17.20;99.90;;;;;;4984762;28;20526;-86
2022/06/16 07:13:25;;;;;;;8.50;3.65;;;17.10;99.90;;;;;;4988475;28;20809;-86
2022/06/16 07:15:52;;;;;;;10.40;3.38;;;17.10;99.90;;;;;;4986981;28;20043;-86
2022/06/16 07:18:19;;;;;;;4.63;2.80;;;17.20;99.90;;;;;;4970472;28;20081;-85
2022/06/16 07:20:47;;;;;;;8.43;2.58;;;17.10;99.90;;;;;;4986094;28;20545;-86
2022/06/16 07:23:15;;;;;;;5.78;2.45;;;17.00;99.90;;;;;;5005717;28;20436;-85
2022/06/16 07:25:42;;;;;;;4.53;2.28;;;17.10;99.90;;;;;;5003644;28;20052;-84
2022/06/16 07:28:09;;;;;;;4.60;2.60;;;16.70;99.90;;;;;;5003378;28;20418;-85
2022/06/16 07:30:36;;;;;;;6.28;2.72;;;16.70;99.90;;;;;;4972826;28;20133;-85
2022/06/16 07:33:03;;;;;;;6.50;2.85;;;16.60;99.90;;;;;;4989264;28;20085;-85
2022/06/16 07:35:30;;;;;;;5.50;3.35;;;16.50;99.90;;;;;;5002310;28;20796;-86
2022/06/16 07:37:57;;;;;;;5.60;3.80;;;16.50;99.90;;;;;;4998684;28;20145;-86
2022/06/16 07:40:24;;;;;;;5.57;3.17;;;16.60;99.90;;;;;;5005473;28;20053;-86
2022/06/16 07:42:56;;;;;;;3.53;2.67;;;16.70;99.90;;;;;;4984426;28;20046;-85
2022/06/16 07:45:24;;;;;;;7.18;2.78;;;16.60;99.90;;;;;;5007135;28;20148;-87
2022/06/16 07:47:55;;;;;;;3.92;3.38;;;16.70;99.90;;;;;;5002258;28;20065;-85
2022/06/16 07:50:22;;;;;;;5.20;3.75;;;16.80;99.90;;;;;;5004294;28;20049;-86
2022/06/16 07:52:49;;;;;;;12.10;3.75;;;16.80;99.90;;;;;;4987865;28;20052;-86
2022/06/16 07:55:18;;;;;;;4.50;2.88;;;16.90;99.90;;;;;;5003218;28;20045;-86
2022/06/16 07:57:49;;;;;;;3.55;2.22;;;17.00;99.90;;;;;;5002856;28;20042;-86
2022/06/16 08:00:20;;;;;;;8.93;3.53;;;17.10;99.90;;;;;;4985541;28;20075;-86
2022/06/16 08:02:47;;;;;;;3.72;2.53;;;17.20;99.90;;;;;;5004824;28;20049;-85
2022/06/16 08:05:21;;;;;;;8.10;2.15;;;17.30;99.90;;;;;;5000851;28;20046;-86
2022/06/16 08:07:49;;;;;;;6.00;2.30;;;17.20;99.90;;;;;;5002142;28;20515;-86
2022/06/16 08:10:20;;;;;;;4.20;1.98;;;17.20;99.90;;;;;;5002355;28;20124;-85
2022/06/16 08:12:47;;;;;;;7.30;2.08;;;17.20;99.90;;;;;;4999200;28;20049;-85
2022/06/16 08:15:14;;;;;;;2.47;1.90;;;17.10;99.90;;;;;;4983697;28;20518;-85
2022/06/16 08:17:45;;;;;;;3.63;2.10;;;17.10;99.90;;;;;;4968337;28;20195;-85
2022/06/16 08:20:12;;;;;;;5.25;1.92;;;17.20;99.90;;;;;;5004253;28;20053;-85
2022/06/16 08:22:39;;;;;;;2.60;2.20;;;17.20;99.90;;;;;;5003655;28;20053;-84
2022/06/16 08:25:07;;;;;;;6.18;2.30;;;17.30;99.90;;;;;;5005051;28;20050;-85
2022/06/16 08:27:37;;;;;;;3.47;2.08;;;17.30;99.90;;;;;;5003474;28;20574;-86
2022/06/16 08:30:08;;;;;;;4.75;2.53;;;17.40;99.90;;;;;;5001075;28;20058;-86
2022/06/16 08:32:35;;;;;;;4.75;2.28;;;17.50;99.90;;;;;;5000662;28;20049;-85
2022/06/16 08:35:03;;;;;;;4.65;2.38;;;17.50;99.90;;;;;;4999891;28;20054;-86
2022/06/16 08:37:35;;;;;;;2.78;1.23;;;17.60;99.90;;;;;;5004657;28;20151;-85
2022/06/16 08:40:04;;;;;;;3.15;1.48;;;17.60;99.90;;;;;;5003134;28;20046;-85
2022/06/16 08:42:52;;;;;;;2.33;1.70;;;17.60;99.90;;;;;;4985548;28;20116;-86
2022/06/16 08:45:37;;;;;;;3.88;2.38;;;17.60;99.90;;;;;;5003973;28;20122;-85
2022/06/16 08:48:23;;;;;;;5.70;2.03;;;17.40;99.90;;;;;;4997697;28;20320;-85
2022/06/16 08:50:56;;;;;;;4.50;2.17;;;17.40;99.90;;;;;;4971271;28;20507;-85
2022/06/16 08:53:35;;;;;;;6.30;2.67;;;17.20;99.90;;;;;;4984883;28;20112;-86
2022/06/16 08:56:04;;;;;;;3.47;2.17;;;17.10;99.90;;;;;;5001024;28;20093;-86
2022/06/16 08:58:58;;;;;;;4.23;2.73;;;17.10;99.90;;;;;;5001675;28;20045;-86
2022/06/16 09:01:47;;;;;;;3.40;1.92;;;17.00;99.90;;;;;;4999429;28;20034;-86
2022/06/16 09:04:20;;;;;;;5.65;2.50;;;16.90;99.90;;;;;;4995582;28;20128;-85
2022/06/16 09:07:07;;;;;;;3.08;1.83;;;16.70;99.90;;;;;;5004483;28;20109;-85
2022/06/16 09:10:15;;;;;;;3.10;2.47;;;16.60;99.90;;;;;;5001684;28;20468;-85
2022/06/16 09:12:42;;;;;;;3.92;1.92;;;16.50;99.90;;;;;;4999636;28;20483;-85
2022/06/16 09:15:41;;;;;;;6.07;2.47;;;16.40;99.90;;;;;;4998160;28;20475;-85
2022/06/16 09:18:34;;;;;;;3.08;1.58;;;16.30;99.90;;;;;;4976891;28;20069;-84
2022/06/16 09:21:23;;;;;;;2.45;1.60;;;16.30;99.90;;;;;;5003305;28;20060;-85
2022/06/16 09:24:04;;;;;;;4.05;1.70;;;16.40;99.90;;;;;;5003227;28;20124;-85
2022/06/16 09:26:36;;;;;;;1.77;1.35;;;16.50;99.90;;;;;;5003334;28;20049;-84
2022/06/16 09:29:06;;;;;;;3.35;1.85;;;16.60;99.90;;;;;;5002986;28;20053;-85
2022/06/16 09:31:40;;;;;;;4.20;2.00;;;16.70;99.90;;;;;;5002566;28;20041;-85
2022/06/16 09:34:16;;;;;;;3.20;1.73;;;16.80;99.90;;;;;;4993485;28;20134;-85
2022/06/16 09:36:49;;;;;;;2.22;1.50;;;16.90;99.90;;;;;;5000586;28;20056;-85
2022/06/16 09:39:34;;;;;;;3.65;2.35;;;16.90;99.90;;;;;;5005432;28;20677;-85
2022/06/16 09:42:37;;;;;;;3.60;2.08;;;16.90;99.90;;;;;;4997039;28;20542;-85
2022/06/16 09:45:46;;;;;;;3.25;1.83;;;17.00;99.90;;;;;;5002117;28;20548;-85
2022/06/16 09:48:29;;;;;;;5.13;1.63;;;17.10;99.90;;;;;;4965174;28;20050;-85
2022/06/16 09:51:01;;;;;;;1.88;1.67;;;17.10;99.90;;;;;;4987293;28;20069;-84
2022/06/16 09:53:50;;;;;;;3.30;1.77;;;17.00;99.90;;;;;;5005883;28;20152;-84
2022/06/16 09:56:21;;;;;;;4.85;2.45;;;17.10;99.90;;;;;;5000813;28;20052;-84
2022/06/16 09:59:02;;;;;;;2.90;2.42;;;17.00;99.90;;;;;;5002039;28;20482;-84
2022/06/16 10:01:35;;;;;;;5.95;3.17;;;17.10;99.90;;;;;;5002478;28;20147;-85
2022/06/16 10:04:06;;;;;;;4.80;3.28;;;17.00;99.90;;;;;;4997255;28;20056;-84
2022/06/16 10:06:41;;;;;;;6.35;3.63;;;17.00;99.90;;;;;;4998811;28;20045;-84
2022/06/16 10:09:46;;;;;;;9.52;4.93;;;16.90;99.90;;;;;;4997437;28;20042;-84
2022/06/16 10:12:36;;;;;;;6.00;3.13;;;16.80;99.90;;;;;;4899149;28;20049;-84
2022/06/16 10:15:28;;;;;;;4.85;3.13;;;16.80;99.90;;;;;;4986189;28;20046;-84
2022/06/16 10:17:57;;;;;;;6.22;2.92;;;16.90;99.90;;;;;;4967690;28;20140;-85
2022/06/16 10:20:26;;;;;;;7.70;2.65;;;17.10;99.90;;;;;;4978633;28;20657;-85
2022/06/16 10:23:19;;;;;;;5.65;2.85;;;17.10;99.90;;;;;;4984484;28;20042;-85
2022/06/16 10:25:57;;;;;;;8.05;3.20;;;17.10;99.90;;;;;;4997206;28;20066;-85
2022/06/16 10:28:24;;;;;;;7.53;3.22;;;17.40;99.90;;;;;;5006463;28;20046;-85
2022/06/16 10:30:51;;;;;;;8.20;2.97;;;17.50;99.90;;;;;;5004690;28;20101;-85
2022/06/16 10:33:25;;;;;;;7.07;3.03;;;17.80;99.90;;;;;;5002010;28;20565;-85
2022/06/16 10:36:06;;;;;;;5.05;2.70;;;17.80;99.90;;;;;;4984274;28;20050;-84
2022/06/16 10:38:40;;;;;;;4.93;3.53;;;17.70;99.90;;;;;;4997295;28;20038;-85
2022/06/16 10:41:30;;;;;;;6.25;3.20;;;17.80;99.90;;;;;;4984487;28;20053;-85
2022/06/16 10:44:02;;;;;;;3.33;2.45;;;18.10;99.90;;;;;;5001704;28;20688;-85
2022/06/16 10:46:36;;;;;;;5.97;3.47;;;18.30;99.90;;;;;;4986317;28;20052;-85
2022/06/16 10:49:12;;;;;;;7.47;3.08;;;18.20;99.90;;;;;;4973773;28;20046;-84
2022/06/16 10:51:49;;;;;;;8.55;3.08;;;18.10;99.90;;;;;;4975370;28;20451;-84
2022/06/16 10:54:35;;;;;;;5.90;2.67;;;18.20;99.90;;;;;;4997587;28;20042;-84
2022/06/16 10:57:15;;;;;;;11.15;3.70;;;18.30;99.90;;;;;;5002380;28;20538;-85
2022/06/16 10:59:51;;;;;;;4.10;2.92;;;18.30;99.90;;;;;;4962158;28;20495;-84
2022/06/16 11:02:23;;;;;;;5.43;3.35;;;18.30;99.90;;;;;;5000450;28;20099;-84
2022/06/16 11:05:11;;;;;;;3.88;3.05;;;18.10;99.90;;;;;;4998853;28;20073;-84
2022/06/16 11:07:42;;;;;;;5.32;3.15;;;18.40;99.90;;;;;;4980933;28;20054;-85
2022/06/16 11:10:13;;;;;;;4.20;3.20;;;18.90;99.90;;;;;;4983306;28;20038;-84
2022/06/16 11:12:46;;;;;;;4.90;2.90;;;18.70;99.90;;;;;;4984963;28;20042;-84
2022/06/16 11:15:28;;;;;;;4.47;2.45;;;18.50;99.90;;;;;;4983390;28;20038;-84
2022/06/16 11:17:59;;;;;;;3.58;2.72;;;18.50;99.90;;;;;;5001186;28;22086;-84
2022/06/16 11:20:31;;;;;;;6.18;2.25;;;18.80;99.90;;;;;;4984342;28;20057;-84
2022/06/16 11:22:58;;;;;;;5.50;3.10;;;19.00;99.90;;;;;;5001047;28;20050;-84
2022/06/16 11:25:37;;;;;;;9.05;3.00;;;19.00;99.90;;;;;;5002563;28;20058;-84
2022/06/16 11:28:07;;;;;;;4.40;2.80;;;19.10;99.90;;;;;;5001534;28;20042;-84
2022/06/16 11:30:34;;;;;;;5.60;3.40;;;19.00;99.90;;;;;;5001959;28;20433;-84
2022/06/16 11:33:02;;;;;;;11.95;4.38;;;18.80;99.90;;;;;;4982855;28;20054;-84
2022/06/16 11:35:49;;;;;;;3.95;3.00;;;18.80;99.90;;;;;;5002484;28;20411;-84
2022/06/16 11:38:25;;;;;;;3.08;2.30;;;18.60;99.90;;;;;;4982750;28;20123;-84
2022/06/16 11:41:00;;;;;;;7.18;3.25;;;18.60;99.90;;;;;;4982648;28;20407;-84
2022/06/16 11:43:39;;;;;;;5.30;3.17;;;18.60;99.90;;;;;;4998950;28;20368;-84
2022/06/16 11:46:18;;;;;;;5.07;3.00;;;18.50;99.90;;;;;;4996078;28;20411;-84
2022/06/16 11:49:04;;;;;;;9.73;2.75;;;18.70;99.90;;;;;;4996331;28;20054;-84
2022/06/16 11:51:42;;;;;;;3.72;3.13;;;18.80;99.90;;;;;;5000349;28;21609;-84
2022/06/16 11:54:35;;;;;;;5.35;2.80;;;18.90;99.90;;;;;;4993622;28;20056;-84
2022/06/16 11:57:24;;;;;;;7.20;3.47;;;19.10;99.90;;;;;;4984791;28;20144;-84
2022/06/16 12:00:16;;;;;;;4.20;2.60;;;19.30;99.90;;;;;;4983025;28;20434;-83
2022/06/16 12:03:09;;;;;;;4.45;3.00;;;19.20;99.90;;;;;;5004260;28;20760;-84
2022/06/16 12:05:52;;;;;;;4.85;3.45;;;19.20;99.90;;;;;;5006533;28;20089;-83
2022/06/16 12:08:40;;;;;;;3.50;2.53;;;19.10;99.90;;;;;;5004316;28;20216;-83
2022/06/16 12:11:31;;;;;;;8.48;4.00;;;19.00;99.90;;;;;;4999399;28;20077;-83
2022/06/16 12:14:53;;;;;;;4.78;2.78;;;19.20;99.90;;;;;;4996461;28;20101;-82
2022/06/16 12:17:35;;;;;;;3.17;2.53;;;19.30;99.90;;;;;;4994192;28;20049;-83
2022/06/16 12:20:29;;;;;;;4.30;2.78;;;19.40;99.90;;;;;;5003180;28;20049;-83
2022/06/16 12:23:21;;;;;;;6.15;2.97;;;19.30;99.90;;;;;;5002161;28;20388;-83
2022/06/16 12:25:58;;;;;;;7.90;2.80;;;19.50;99.90;;;;;;5000059;28;20062;-83
2022/06/16 12:28:36;;;;;;;9.20;3.55;;;19.80;99.90;;;;;;5004768;28;20522;-83
2022/06/16 12:31:21;;;;;;;5.25;4.47;;;19.90;99.90;;;;;;5001105;28;20053;-84
2022/06/16 12:34:08;;;;;;;3.28;2.97;;;19.90;99.90;;;;;;5001069;28;20065;-86
2022/06/16 12:36:44;;;;;;;5.88;3.17;;;19.90;99.90;;;;;;4993983;28;20166;-85
2022/06/16 12:39:26;;;;;;;6.38;2.80;;;19.90;99.90;;;;;;4983577;28;20111;-85
2022/06/16 12:41:56;;;;;;;3.45;2.83;;;20.00;99.90;;;;;;4982836;28;20046;-86
2022/06/16 12:44:40;;;;;;;7.15;3.78;;;19.90;99.90;;;;;;4976353;28;20046;-85
2022/06/16 12:47:17;;;;;;;5.80;2.78;;;19.60;99.90;;;;;;4987733;28;20054;-85
2022/06/16 12:49:52;;;;;;;4.05;3.13;;;19.30;99.90;;;;;;4970282;28;20137;-85
2022/06/16 12:52:42;;;;;;;4.22;3.00;;;19.20;99.90;;;;;;4996093;28;20045;-86
2022/06/16 12:55:25;;;;;;;3.70;2.90;;;19.40;99.90;;;;;;4992640;28;20069;-86
2022/06/16 12:58:24;;;;;;;7.95;3.45;;;19.40;99.90;;;;;;4990895;28;20145;-86
2022/06/16 13:00:58;;;;;;;3.45;2.40;;;19.60;99.90;;;;;;4982964;28;20080;-85
2022/06/16 13:03:35;;;;;;;7.40;2.90;;;19.50;99.90;;;;;;4999957;28;20066;-85
2022/06/16 13:06:04;;;;;;;11.55;4.63;;;19.60;99.90;;;;;;4942622;28;20421;-85
2022/06/16 13:08:37;;;;;;;3.00;2.70;;;19.90;99.90;;;;;;4994244;28;20050;-85
2022/06/16 13:11:09;;;;;;;5.15;2.78;;;19.80;99.90;;;;;;4967111;28;20107;-85
2022/06/16 13:13:41;;;;;;;8.15;3.92;;;19.80;99.90;;;;;;4978197;28;20514;-85
2022/06/16 13:16:09;;;;;;;5.32;4.07;;;20.00;99.90;;;;;;4985951;28;20046;-85
2022/06/16 13:18:47;;;;;;;8.75;3.50;;;19.80;99.90;;;;;;4995357;28;20410;-86
2022/06/16 13:21:26;;;;;;;5.65;2.97;;;19.50;99.90;;;;;;4978075;28;20066;-86
2022/06/16 13:24:12;;;;;;;6.15;3.38;;;19.70;99.90;;;;;;4980858;28;20108;-85
2022/06/16 13:26:53;;;;;;;3.63;2.42;;;19.50;99.90;;;;;;4976456;28;20742;-85
2022/06/16 13:29:20;;;;;;;5.68;3.00;;;19.50;99.90;;;;;;4992459;28;20054;-86
2022/06/16 13:32:03;;;;;;;2.72;2.10;;;19.60;99.90;;;;;;4977689;28;20152;-86
2022/06/16 13:34:42;;;;;;;7.72;4.13;;;19.80;99.90;;;;;;4980174;28;20140;-85
2022/06/16 13:37:26;;;;;;;3.60;2.53;;;19.60;99.90;;;;;;4995808;28;20066;-85
2022/06/16 13:39:56;;;;;;;6.10;3.00;;;19.20;99.90;;;;;;4963420;28;20141;-85
2022/06/16 13:43:01;;;;;;;5.90;2.92;;;19.20;99.90;;;;;;4949774;28;20306;-86
2022/06/16 13:45:29;;;;;;;4.50;3.35;;;19.20;99.90;;;;;;4967281;28;20111;-86
2022/06/16 13:48:08;;;;;;;3.67;2.67;;;19.10;99.90;;;;;;4985436;28;20055;-85
2022/06/16 13:50:47;;;;;;;3.13;2.55;;;19.10;99.90;;;;;;4970927;28;20052;-85
2022/06/16 13:53:23;;;;;;;4.00;3.03;;;19.20;99.90;;;;;;4980461;28;20688;-85
2022/06/16 13:55:58;;;;;;;4.75;3.10;;;19.40;99.90;;;;;;4960373;28;20057;-85
2022/06/16 13:58:30;;;;;;;3.83;2.53;;;19.60;99.90;;;;;;4984047;28;20422;-85